메인 페이지
METAR-TAF:

METAR-TAF

공항 :

라르나카 국제공항

라르나카, 키프로스

위도: 34-53N, 경도: 033-38E, 고도: 2m

현재 날씨관측

예보는 11분 전, 18:00시(UTC)에 발표되었습니다.
북서5kt
온도 14°C
습도 82%
기압 1014 hPa
시정 10km 이상
고도 2000ft 상공 구름 조금, 타워링 적운.
고도 2500ft 상공 구름 보통

METAR: LCLK 241800Z 31005KT 9999 FEW020TCU SCT025 14/11 Q1014 NOSIG

시각: 20:11 (18:11 UTC)

예보

예보는 41분 전, 17:30시(UTC)에 발표되었습니다.
예보 대상 시간: 24일 18시부터 25일 18시까지 (UTC)
북북서9kt
시정 10km 이상
고도 3000ft 상공 구름 조금

TAF: LCLK 241730Z 2418/2518 33009KT 9999 FEW030

4,000개 이상의 공항 관측 자료 및 예보 (METAR 및 TAF 보고).

지도상에서 검색 가능한 기상관측소가 노란 점과 빨간 점으로 표시되어 있습니다.

기상관측소 명을 보려면 표시 위로 마우스를 이동하세요.

날씨 관측과 예보를 보려면 클릭하세요.

지도 변경 : 확대하려면 엑스 표시가 있는 녹색 버튼, 축소하려면 빼기 표시가 있는 녹색 버튼, 다음 페이지의 지도를 보려면 녹색 화살표를 클릭하세요.


METAR-TAF: